Time;durP1;ratioP1;P1;durP2;ratioP2;P2;SDS_P1;SDS_P2;PMS_P1;PMS_P2;Temp;Humidity;BMP_temperature;BMP_pressure;BME280_temperature;BME280_humidity;BME280_pressure;Samples;Min_cycle;Max_cycle;Signal;HPM_P1;HPM_P2
2021/01/17 00:01:17;;;;;;;4.10;3.70;;;-2.30;99.90;;;;;;4854483;28;20475;-77
2021/01/17 00:03:43;;;;;;;4.30;3.70;;;-2.30;99.90;;;;;;4840642;28;20427;-77
2021/01/17 00:06:09;;;;;;;3.85;3.53;;;-2.30;99.90;;;;;;4869367;28;20740;-75
2021/01/17 00:08:34;;;;;;;5.25;4.03;;;-2.30;99.90;;;;;;4870639;28;20410;-78
2021/01/17 00:11:00;;;;;;;4.28;3.80;;;-2.30;99.90;;;;;;4880242;28;20496;-75
2021/01/17 00:13:26;;;;;;;4.38;3.97;;;-2.30;99.90;;;;;;4870711;28;20432;-75
2021/01/17 00:15:51;;;;;;;5.00;4.10;;;-2.30;99.90;;;;;;4830865;28;20427;-75
2021/01/17 00:18:17;;;;;;;4.03;3.63;;;-2.30;99.90;;;;;;4842818;29;20491;-75
2021/01/17 00:20:43;;;;;;;4.20;3.80;;;-2.30;99.90;;;;;;4868383;28;20818;-74
2021/01/17 00:23:09;;;;;;;4.13;3.72;;;-2.40;99.90;;;;;;4850857;28;20408;-75
2021/01/17 00:25:34;;;;;;;4.87;3.60;;;-2.40;99.90;;;;;;4853990;29;20525;-75
2021/01/17 00:28:01;;;;;;;4.03;3.67;;;-2.40;99.90;;;;;;4924836;28;20409;-77
2021/01/17 00:30:31;;;;;;;3.88;3.47;;;-2.40;99.90;;;;;;4924175;28;20395;-75
2021/01/17 00:32:58;;;;;;;4.50;3.93;;;-2.40;99.90;;;;;;4847919;28;20421;-76
2021/01/17 00:35:25;;;;;;;4.75;3.70;;;-2.30;99.90;;;;;;4893956;28;20476;-79
2021/01/17 00:37:54;;;;;;;4.20;3.50;;;-2.30;99.90;;;;;;4869200;28;20444;-77
2021/01/17 00:40:20;;;;;;;4.38;3.50;;;-2.30;99.90;;;;;;4857889;28;20473;-79
2021/01/17 00:42:50;;;;;;;4.10;3.58;;;-2.30;99.90;;;;;;4847603;28;20413;-76
2021/01/17 00:45:16;;;;;;;4.45;3.50;;;-2.30;99.90;;;;;;4856721;28;21201;-77
2021/01/17 00:47:44;;;;;;;3.95;3.55;;;-2.30;99.90;;;;;;4861502;28;20412;-77
2021/01/17 00:50:11;;;;;;;3.55;3.25;;;-2.30;99.90;;;;;;4835006;29;20451;-82
2021/01/17 00:52:37;;;;;;;5.00;3.83;;;-2.30;99.90;;;;;;4856797;28;20420;-79
2021/01/17 00:55:04;;;;;;;4.22;3.53;;;-2.30;99.90;;;;;;4861182;28;20463;-81
2021/01/17 00:57:29;;;;;;;4.40;3.67;;;-2.30;99.90;;;;;;4856635;28;20403;-77
2021/01/17 00:59:56;;;;;;;4.63;3.30;;;-2.30;99.90;;;;;;4861841;28;20427;-78
2021/01/17 01:02:21;;;;;;;4.50;3.40;;;-2.30;99.90;;;;;;4825514;28;20403;-76
2021/01/17 01:04:48;;;;;;;3.47;3.10;;;-2.20;99.90;;;;;;4872559;28;20406;-79
2021/01/17 01:07:14;;;;;;;3.50;3.20;;;-2.20;99.90;;;;;;4880200;28;20410;-78
2021/01/17 01:09:41;;;;;;;3.80;3.42;;;-2.20;99.90;;;;;;4881849;29;20411;-79
2021/01/17 01:12:07;;;;;;;3.55;3.25;;;-2.20;99.90;;;;;;4878441;28;20419;-77
2021/01/17 01:14:32;;;;;;;3.80;3.40;;;-2.20;99.90;;;;;;4856981;28;20436;-78
2021/01/17 01:16:58;;;;;;;3.47;3.17;;;-2.20;99.90;;;;;;4871923;29;20643;-78
2021/01/17 01:19:24;;;;;;;4.20;3.80;;;-2.20;99.90;;;;;;4848857;29;20564;-81
2021/01/17 01:21:50;;;;;;;3.67;3.38;;;-2.10;99.90;;;;;;4851510;28;20408;-84
2021/01/17 01:24:16;;;;;;;3.92;3.00;;;-2.10;99.90;;;;;;4899384;28;20404;-81
2021/01/17 01:26:43;;;;;;;4.57;3.78;;;-2.10;99.90;;;;;;4944315;28;20411;-80
2021/01/17 01:29:09;;;;;;;3.65;3.30;;;-2.00;99.90;;;;;;4945167;28;20409;-82
2021/01/17 01:31:35;;;;;;;3.70;3.40;;;-2.00;99.90;;;;;;4871473;29;20918;-80
2021/01/17 01:34:01;;;;;;;4.35;3.60;;;-2.00;99.90;;;;;;4889036;28;20424;-79
2021/01/17 01:36:30;;;;;;;5.97;3.90;;;-2.00;99.90;;;;;;4872238;29;20774;-80
2021/01/17 01:38:56;;;;;;;3.90;3.50;;;-2.00;99.90;;;;;;4870443;28;20407;-77
2021/01/17 01:41:26;;;;;;;3.90;3.40;;;-2.00;99.90;;;;;;4832318;29;20483;-77
2021/01/17 01:43:52;;;;;;;3.78;3.30;;;-2.00;99.90;;;;;;4856868;28;20846;-82
2021/01/17 01:46:20;;;;;;;4.07;3.58;;;-2.10;99.90;;;;;;4846054;29;20409;-79
2021/01/17 01:48:46;;;;;;;3.83;3.42;;;-2.00;99.90;;;;;;4843859;29;20427;-78
2021/01/17 01:51:13;;;;;;;3.50;3.20;;;-2.00;99.90;;;;;;4943548;28;20431;-84
2021/01/17 01:53:39;;;;;;;3.70;3.40;;;-2.10;99.90;;;;;;4878727;28;20447;-76
2021/01/17 01:56:05;;;;;;;3.72;3.35;;;-2.10;99.90;;;;;;4849353;28;21281;-78
2021/01/17 01:58:31;;;;;;;4.22;3.20;;;-2.10;99.90;;;;;;4918348;28;20405;-81
2021/01/17 02:00:56;;;;;;;4.20;3.60;;;-2.10;99.90;;;;;;4829806;28;20409;-77
2021/01/17 02:03:22;;;;;;;4.20;3.80;;;-2.10;99.90;;;;;;4861546;28;20416;-78
2021/01/17 02:05:48;;;;;;;3.97;3.57;;;-2.10;99.90;;;;;;4839871;29;20427;-79
2021/01/17 02:08:43;;;;;;;3.80;3.33;;;-2.20;99.90;;;;;;4879038;29;20521;-81
2021/01/17 02:11:47;;;;;;;4.32;3.67;;;-2.20;99.90;;;;;;4864110;28;20413;-85
2021/01/17 02:14:25;;;;;;;4.97;3.75;;;-2.10;99.90;;;;;;4972839;28;20420;-79
2021/01/17 02:16:52;;;;;;;4.03;3.63;;;-2.10;99.90;;;;;;4860214;28;20422;-78
2021/01/17 02:19:18;;;;;;;3.80;3.40;;;-2.00;99.90;;;;;;4842093;28;20424;-83
2021/01/17 02:21:52;;;;;;;4.40;3.53;;;-2.10;99.90;;;;;;4882737;29;20433;-82
2021/01/17 02:24:18;;;;;;;4.33;3.90;;;-2.00;99.90;;;;;;4872456;28;20424;-79
2021/01/17 02:26:44;;;;;;;7.43;3.70;;;-2.00;99.90;;;;;;4855574;29;21038;-79
2021/01/17 02:29:10;;;;;;;4.03;3.30;;;-2.00;99.90;;;;;;4863180;29;20517;-80
2021/01/17 02:31:36;;;;;;;4.10;3.60;;;-2.00;99.90;;;;;;4884636;28;20550;-79
2021/01/17 02:34:03;;;;;;;3.58;3.28;;;-2.00;99.90;;;;;;4839649;28;20639;-76
2021/01/17 02:36:40;;;;;;;4.13;3.53;;;-2.00;99.90;;;;;;4876468;28;20495;-79
2021/01/17 02:39:06;;;;;;;3.75;3.35;;;-2.10;99.90;;;;;;4945810;28;20417;-78
2021/01/17 02:41:55;;;;;;;4.25;3.80;;;-2.00;99.90;;;;;;4868104;29;20408;-79
2021/01/17 02:44:21;;;;;;;5.72;4.13;;;-2.00;99.90;;;;;;4850420;29;20413;-80
2021/01/17 02:46:46;;;;;;;4.18;3.78;;;-2.00;99.90;;;;;;4841919;29;20416;-83
2021/01/17 02:49:12;;;;;;;4.75;3.95;;;-2.00;99.90;;;;;;4827287;29;20477;-76
2021/01/17 02:51:38;;;;;;;3.83;3.53;;;-2.00;99.90;;;;;;4840440;29;20417;-79
2021/01/17 02:54:09;;;;;;;3.60;3.30;;;-2.00;99.90;;;;;;4848471;29;20413;-78
2021/01/17 02:56:35;;;;;;;3.97;3.58;;;-2.10;99.90;;;;;;4832415;28;20468;-79
2021/01/17 02:59:01;;;;;;;4.40;3.92;;;-2.10;99.90;;;;;;4858318;28;20463;-78
2021/01/17 03:01:29;;;;;;;4.43;4.00;;;-2.10;99.90;;;;;;4838312;28;20424;-80
2021/01/17 03:04:00;;;;;;;4.68;3.78;;;-2.10;99.90;;;;;;4839552;28;20814;-77
2021/01/17 03:06:26;;;;;;;5.10;3.92;;;-2.10;99.90;;;;;;4843730;28;20420;-77
2021/01/17 03:08:52;;;;;;;4.45;3.88;;;-2.20;99.90;;;;;;4838997;28;20409;-78
2021/01/17 03:11:17;;;;;;;5.07;4.00;;;-2.20;99.90;;;;;;4839848;29;20399;-79
2021/01/17 03:13:43;;;;;;;3.80;3.50;;;-2.20;99.90;;;;;;4901790;28;20417;-77
2021/01/17 03:16:09;;;;;;;5.00;3.90;;;-2.20;99.90;;;;;;4837865;29;20532;-77
2021/01/17 03:18:35;;;;;;;4.40;3.97;;;-2.20;99.90;;;;;;4824085;28;20421;-77
2021/01/17 03:21:01;;;;;;;5.07;4.18;;;-2.00;99.90;;;;;;4822997;28;20479;-79
2021/01/17 03:23:27;;;;;;;4.30;3.90;;;-2.20;99.90;;;;;;4822184;29;20788;-79
2021/01/17 03:25:52;;;;;;;4.22;3.80;;;-2.10;99.90;;;;;;4877851;28;20401;-77
2021/01/17 03:28:18;;;;;;;3.85;3.50;;;-2.10;99.90;;;;;;4838634;29;20788;-83
2021/01/17 03:30:44;;;;;;;4.70;3.97;;;-2.20;99.90;;;;;;4853835;28;20445;-76
2021/01/17 03:33:09;;;;;;;4.07;3.67;;;-2.10;99.90;;;;;;4853972;28;20429;-79
2021/01/17 03:35:36;;;;;;;5.07;4.00;;;-2.10;99.90;;;;;;4838661;29;20437;-76
2021/01/17 03:38:02;;;;;;;4.43;3.90;;;-2.10;99.90;;;;;;4870678;29;20445;-82
2021/01/17 03:40:28;;;;;;;4.03;3.60;;;-2.10;99.90;;;;;;4912446;28;20424;-78
2021/01/17 03:42:54;;;;;;;4.35;3.88;;;-2.10;99.90;;;;;;4851493;29;20835;-79
2021/01/17 03:45:19;;;;;;;5.20;3.87;;;-2.10;99.90;;;;;;4861237;28;20456;-80
2021/01/17 03:47:45;;;;;;;4.40;3.70;;;-2.00;99.90;;;;;;4839110;28;20462;-76
2021/01/17 03:50:11;;;;;;;3.97;3.57;;;-2.00;99.90;;;;;;4838456;29;20420;-83
2021/01/17 03:52:38;;;;;;;4.93;3.83;;;-2.00;99.90;;;;;;4853361;28;21183;-83
2021/01/17 03:55:04;;;;;;;4.75;3.90;;;-2.00;99.90;;;;;;4885246;28;20440;-82
2021/01/17 03:57:30;;;;;;;4.60;3.83;;;-2.00;99.90;;;;;;4851135;28;20401;-80
2021/01/17 03:59:56;;;;;;;4.30;3.90;;;-2.00;99.90;;;;;;4838888;28;20413;-78
2021/01/17 04:02:22;;;;;;;4.40;3.87;;;-2.00;99.90;;;;;;4867877;29;20415;-81
2021/01/17 04:04:48;;;;;;;4.28;3.88;;;-2.00;99.90;;;;;;4864973;28;20796;-81
2021/01/17 04:07:13;;;;;;;3.95;3.55;;;-2.00;99.90;;;;;;4875286;28;20424;-82
2021/01/17 04:09:39;;;;;;;4.60;3.90;;;-1.90;99.90;;;;;;4842395;28;20413;-81
2021/01/17 04:12:05;;;;;;;4.20;3.80;;;-2.00;99.90;;;;;;4838095;29;20415;-79
2021/01/17 04:14:31;;;;;;;4.22;3.83;;;-2.00;99.90;;;;;;4837652;29;20419;-81
2021/01/17 04:16:57;;;;;;;4.47;4.00;;;-2.00;99.90;;;;;;4834337;28;20407;-80
2021/01/17 04:19:22;;;;;;;4.40;3.90;;;-2.00;99.90;;;;;;4840860;28;20425;-82
2021/01/17 04:21:48;;;;;;;4.85;3.72;;;-2.00;99.90;;;;;;4841620;29;20507;-78
2021/01/17 04:24:14;;;;;;;6.03;4.05;;;-2.00;99.90;;;;;;4860795;28;20405;-80
2021/01/17 04:26:40;;;;;;;5.07;4.05;;;-2.10;99.90;;;;;;4828955;28;20640;-78
2021/01/17 04:29:05;;;;;;;4.80;4.15;;;-2.10;99.90;;;;;;4849285;29;20436;-78
2021/01/17 04:31:41;;;;;;;4.13;3.63;;;-2.10;99.90;;;;;;4832963;29;20779;-80
2021/01/17 04:34:07;;;;;;;4.40;4.00;;;-2.10;99.90;;;;;;4840140;28;20470;-82
2021/01/17 04:36:33;;;;;;;5.00;3.90;;;-2.10;99.90;;;;;;4858134;28;20425;-81
2021/01/17 04:39:02;;;;;;;4.50;3.90;;;-2.10;99.90;;;;;;4881756;28;22247;-83
2021/01/17 04:41:28;;;;;;;4.03;3.42;;;-2.00;99.90;;;;;;4850997;28;20471;-79
2021/01/17 04:43:58;;;;;;;4.43;4.03;;;-2.00;99.90;;;;;;4846218;28;21011;-76
2021/01/17 04:46:26;;;;;;;4.20;3.80;;;-2.00;99.90;;;;;;4822988;28;20421;-80
2021/01/17 04:48:56;;;;;;;4.07;3.70;;;-2.10;99.90;;;;;;4822445;29;20432;-80
2021/01/17 04:51:22;;;;;;;5.18;4.43;;;-2.00;99.90;;;;;;4829739;29;20405;-81
2021/01/17 04:53:47;;;;;;;4.93;4.28;;;-2.00;99.90;;;;;;4815047;29;20966;-82
2021/01/17 04:56:39;;;;;;;4.20;3.80;;;-2.10;99.90;;;;;;4833398;29;20517;-77
2021/01/17 04:59:11;;;;;;;4.60;4.07;;;-2.10;99.90;;;;;;4951048;28;20404;-79
2021/01/17 05:01:46;;;;;;;5.45;3.95;;;-2.10;99.90;;;;;;4873142;29;20413;-81
2021/01/17 05:04:23;;;;;;;5.25;4.25;;;-2.00;99.90;;;;;;4960302;28;20454;-79
2021/01/17 05:06:48;;;;;;;4.72;4.13;;;-2.10;99.90;;;;;;4923558;28;20938;-76
2021/01/17 05:09:20;;;;;;;4.97;4.05;;;-2.10;99.90;;;;;;4808268;28;20420;-78
2021/01/17 05:11:49;;;;;;;4.97;4.38;;;-2.00;99.90;;;;;;4849029;29;20914;-78
2021/01/17 05:14:23;;;;;;;4.15;3.75;;;-2.00;99.90;;;;;;4914126;28;20401;-83
2021/01/17 05:16:49;;;;;;;4.43;3.75;;;-2.00;99.90;;;;;;4880565;28;20444;-81
2021/01/17 05:19:16;;;;;;;4.57;4.13;;;-2.00;99.90;;;;;;4844188;28;20425;-80
2021/01/17 05:21:47;;;;;;;4.40;4.00;;;-1.90;99.90;;;;;;4849287;29;20922;-78
2021/01/17 05:24:13;;;;;;;4.70;4.20;;;-1.90;99.90;;;;;;4886000;28;20534;-78
2021/01/17 05:26:41;;;;;;;5.40;4.00;;;-2.00;99.90;;;;;;4927080;28;20410;-78
2021/01/17 05:29:08;;;;;;;5.90;4.50;;;-2.00;99.90;;;;;;4929950;29;20418;-81
2021/01/17 05:31:33;;;;;;;4.15;3.75;;;-2.00;99.90;;;;;;4875376;29;20414;-79
2021/01/17 05:34:02;;;;;;;4.35;3.70;;;-2.10;99.90;;;;;;4881850;28;20474;-81
2021/01/17 05:36:27;;;;;;;5.53;4.15;;;-2.00;99.90;;;;;;4933350;28;20762;-84
2021/01/17 05:39:04;;;;;;;4.17;3.87;;;-2.00;99.90;;;;;;4885228;29;20579;-79
2021/01/17 05:41:30;;;;;;;4.57;4.17;;;-2.00;99.90;;;;;;4933360;28;20427;-78
2021/01/17 05:43:55;;;;;;;5.57;4.30;;;-1.90;99.90;;;;;;4955832;28;20403;-80
2021/01/17 05:46:21;;;;;;;5.40;4.05;;;-2.00;99.90;;;;;;4898185;29;20508;-83
2021/01/17 05:48:47;;;;;;;5.57;4.53;;;-2.00;99.90;;;;;;4830518;28;21933;-80
2021/01/17 05:51:28;;;;;;;5.63;4.60;;;-2.00;99.90;;;;;;4863225;28;20785;-81
2021/01/17 05:53:54;;;;;;;4.75;4.00;;;-2.00;99.90;;;;;;4941500;28;20398;-76
2021/01/17 05:56:20;;;;;;;4.70;4.30;;;-2.00;99.90;;;;;;4937078;28;20404;-82
2021/01/17 05:58:46;;;;;;;4.65;4.18;;;-2.00;99.90;;;;;;4848362;28;20431;-80
2021/01/17 06:01:18;;;;;;;5.20;4.68;;;-2.00;99.90;;;;;;4879888;29;20414;-75
2021/01/17 06:03:51;;;;;;;4.70;4.30;;;-2.00;99.90;;;;;;4904653;28;20416;-78
2021/01/17 06:06:25;;;;;;;5.20;4.35;;;-2.00;99.90;;;;;;4926011;29;20430;-80
2021/01/17 06:08:54;;;;;;;5.95;5.07;;;-2.00;99.90;;;;;;4906591;28;20405;-81
2021/01/17 06:11:20;;;;;;;5.53;4.77;;;-2.10;99.90;;;;;;4927616;28;20411;-75
2021/01/17 06:13:52;;;;;;;4.53;4.00;;;-2.10;99.90;;;;;;4936325;28;20754;-78
2021/01/17 06:16:34;;;;;;;5.10;4.60;;;-2.10;99.90;;;;;;4875493;29;20488;-79
2021/01/17 06:19:01;;;;;;;4.45;4.05;;;-2.00;99.90;;;;;;4862829;28;20412;-83
2021/01/17 06:21:28;;;;;;;6.95;4.80;;;-2.00;99.90;;;;;;4858512;28;20422;-80
2021/01/17 06:23:55;;;;;;;6.05;4.75;;;-1.90;99.90;;;;;;4853194;28;20944;-77
2021/01/17 06:26:29;;;;;;;4.80;4.30;;;-1.90;99.90;;;;;;4825819;29;20417;-75
2021/01/17 06:28:55;;;;;;;4.70;4.20;;;-2.00;99.90;;;;;;4869709;29;20415;-76
2021/01/17 06:31:26;;;;;;;5.80;5.07;;;-2.00;99.90;;;;;;4844428;29;20486;-77
2021/01/17 06:34:00;;;;;;;5.53;4.30;;;-2.00;99.90;;;;;;4840121;28;20778;-82
2021/01/17 06:36:26;;;;;;;4.90;4.38;;;-2.00;99.90;;;;;;4902925;29;20422;-80
2021/01/17 06:38:52;;;;;;;6.10;4.50;;;-2.00;99.90;;;;;;4821384;29;20764;-78
2021/01/17 06:41:18;;;;;;;6.10;4.70;;;-2.00;99.90;;;;;;4831249;29;20409;-81
2021/01/17 06:43:44;;;;;;;6.50;5.03;;;-2.00;99.90;;;;;;4830626;28;20413;-76
2021/01/17 06:46:10;;;;;;;4.70;4.30;;;-2.00;99.90;;;;;;4843475;29;20421;-78
2021/01/17 06:48:36;;;;;;;4.88;4.38;;;-2.10;99.90;;;;;;4836553;29;20935;-79
2021/01/17 06:51:18;;;;;;;4.40;4.00;;;-2.10;99.90;;;;;;4845772;28;20419;-81
2021/01/17 06:53:56;;;;;;;4.70;4.13;;;-2.00;99.90;;;;;;4845578;29;20421;-81
2021/01/17 06:56:22;;;;;;;4.20;3.80;;;-2.00;99.90;;;;;;4849158;28;20413;-81
2021/01/17 06:58:50;;;;;;;4.40;4.00;;;-2.00;99.90;;;;;;4882774;29;20440;-84
2021/01/17 07:01:15;;;;;;;4.75;4.22;;;-2.00;99.90;;;;;;4847434;28;20404;-83
2021/01/17 07:04:15;;;;;;;4.67;4.17;;;-1.90;99.90;;;;;;4820678;28;20422;-84
2021/01/17 07:07:05;;;;;;;6.20;5.57;;;-1.90;99.90;;;;;;4959199;28;20484;-80
2021/01/17 07:09:48;;;;;;;6.10;4.60;;;-1.90;99.90;;;;;;4943097;28;20925;-82
2021/01/17 07:12:53;;;;;;;4.82;4.32;;;-2.00;99.90;;;;;;4955997;28;20491;-83
2021/01/17 07:15:25;;;;;;;5.03;4.53;;;-2.00;99.90;;;;;;4923134;28;20406;-79
2021/01/17 07:17:55;;;;;;;4.80;4.20;;;-2.00;99.90;;;;;;4861302;28;20506;-79
2021/01/17 07:20:21;;;;;;;5.82;4.78;;;-1.90;99.90;;;;;;4833051;29;20401;-81
2021/01/17 07:22:46;;;;;;;5.40;4.43;;;-2.00;99.90;;;;;;4844656;29;20418;-80
2021/01/17 07:25:12;;;;;;;4.73;4.23;;;-2.00;99.90;;;;;;4841334;28;20421;-80
2021/01/17 07:27:45;;;;;;;6.50;4.83;;;-2.00;99.90;;;;;;4847011;29;20498;-83
2021/01/17 07:30:16;;;;;;;4.85;4.28;;;-2.00;99.90;;;;;;4846475;28;20413;-80
2021/01/17 07:32:41;;;;;;;6.53;4.53;;;-2.10;99.90;;;;;;4831840;28;20555;-87
2021/01/17 07:35:10;;;;;;;6.53;5.37;;;-2.10;99.90;;;;;;4847298;28;20867;-84
2021/01/17 07:37:41;;;;;;;8.77;6.53;;;-2.00;99.90;;;;;;4848439;29;20405;-83
2021/01/17 07:40:08;;;;;;;7.60;5.63;;;-2.00;99.90;;;;;;4832225;28;20463;-85
2021/01/17 07:42:37;;;;;;;14.60;11.18;;;-1.90;99.90;;;;;;4859889;28;20488;-82
2021/01/17 07:45:14;;;;;;;7.60;6.43;;;-1.90;99.90;;;;;;4842778;28;20491;-80
2021/01/17 07:47:42;;;;;;;5.53;5.03;;;-1.90;99.90;;;;;;4910164;29;20462;-82
2021/01/17 07:50:09;;;;;;;5.85;4.60;;;-1.90;99.90;;;;;;4860976;29;20462;-82
2021/01/17 07:52:41;;;;;;;5.67;4.70;;;-1.90;99.90;;;;;;4859499;29;20473;-84
2021/01/17 07:55:09;;;;;;;5.90;5.30;;;-1.90;99.90;;;;;;4859711;29;20420;-86
2021/01/17 07:57:34;;;;;;;4.90;4.40;;;-1.90;99.90;;;;;;4860263;29;20413;-81
2021/01/17 08:00:07;;;;;;;5.45;4.65;;;-1.90;99.90;;;;;;4858674;29;20399;-82
2021/01/17 08:02:33;;;;;;;6.25;4.20;;;-1.90;99.90;;;;;;4857777;29;20433;-82
2021/01/17 08:04:59;;;;;;;6.00;4.70;;;-1.90;99.90;;;;;;4827254;28;20889;-79
2021/01/17 08:07:33;;;;;;;5.07;4.40;;;-1.80;99.90;;;;;;4845090;29;20398;-85
2021/01/17 08:10:00;;;;;;;4.80;4.30;;;-1.80;99.90;;;;;;4845307;28;20753;-83
2021/01/17 08:12:32;;;;;;;4.93;4.32;;;-1.90;99.90;;;;;;4885108;28;20409;-80
2021/01/17 08:15:16;;;;;;;4.25;3.85;;;-1.80;99.90;;;;;;4882507;28;20697;-81
2021/01/17 08:17:42;;;;;;;5.67;4.00;;;-1.70;99.90;;;;;;4843244;29;20469;-83
2021/01/17 08:20:08;;;;;;;5.40;4.30;;;-1.70;99.90;;;;;;4844380;29;20406;-84
2021/01/17 08:22:34;;;;;;;5.88;4.57;;;-1.60;99.90;;;;;;4850814;29;20871;-83
2021/01/17 08:25:03;;;;;;;7.05;4.70;;;-1.60;99.90;;;;;;4873642;28;20420;-79
2021/01/17 08:27:38;;;;;;;7.28;4.45;;;-1.60;99.90;;;;;;4863141;29;20406;-80
2021/01/17 08:30:07;;;;;;;5.20;4.55;;;-1.50;99.90;;;;;;4899018;29;20410;-83
2021/01/17 08:32:49;;;;;;;6.05;5.10;;;-1.50;99.90;;;;;;4872347;28;20412;-80
2021/01/17 08:35:20;;;;;;;6.05;5.13;;;-1.50;99.90;;;;;;4865670;29;20428;-82
2021/01/17 08:38:11;;;;;;;7.10;4.97;;;-1.60;99.90;;;;;;4855130;28;20508;-78
2021/01/17 08:40:36;;;;;;;6.07;4.55;;;-1.70;99.90;;;;;;4849652;29;20421;-76
2021/01/17 08:43:06;;;;;;;6.93;5.10;;;-1.70;99.90;;;;;;4840327;28;20409;-83
2021/01/17 08:45:36;;;;;;;6.30;5.33;;;-1.80;99.90;;;;;;4826836;29;20492;-75
2021/01/17 08:48:19;;;;;;;6.07;5.30;;;-1.80;99.90;;;;;;4854055;28;20459;-79
2021/01/17 08:50:55;;;;;;;6.85;5.40;;;-1.80;99.90;;;;;;4853323;28;20467;-76
2021/01/17 08:53:21;;;;;;;5.32;4.82;;;-1.90;99.90;;;;;;4833544;28;20458;-77
2021/01/17 08:55:51;;;;;;;7.03;5.38;;;-1.90;99.90;;;;;;4863687;28;20440;-78
2021/01/17 08:58:26;;;;;;;5.47;4.87;;;-1.90;99.90;;;;;;4854353;28;20987;-79
2021/01/17 09:00:51;;;;;;;5.53;4.68;;;-1.80;99.90;;;;;;4869717;28;20412;-77
2021/01/17 09:03:30;;;;;;;7.22;4.93;;;-1.80;99.90;;;;;;4870605;28;20968;-78
2021/01/17 09:06:00;;;;;;;5.97;4.80;;;-1.70;99.90;;;;;;4851210;28;20427;-75
2021/01/17 09:08:27;;;;;;;5.40;4.70;;;-1.70;99.90;;;;;;4852106;29;20426;-77
2021/01/17 09:10:52;;;;;;;10.80;6.68;;;-1.60;99.90;;;;;;4857311;28;20443;-85
2021/01/17 09:13:19;;;;;;;6.18;4.70;;;-1.50;99.90;;;;;;4889794;28;20917;-76
2021/01/17 09:16:08;;;;;;;5.70;3.90;;;-1.30;99.90;;;;;;4853575;29;20467;-79
2021/01/17 09:18:37;;;;;;;5.95;4.03;;;-1.20;99.90;;;;;;4846040;28;20436;-84
2021/01/17 09:21:04;;;;;;;5.45;4.28;;;-1.20;99.90;;;;;;4845458;29;20973;-83
2021/01/17 09:23:30;;;;;;;5.75;3.83;;;-1.10;99.90;;;;;;4845563;28;20416;-78
2021/01/17 09:25:59;;;;;;;4.68;4.03;;;-1.10;99.90;;;;;;4847897;28;20500;-78
2021/01/17 09:28:26;;;;;;;5.78;4.38;;;-1.10;99.90;;;;;;4844277;29;20470;-80
2021/01/17 09:30:52;;;;;;;5.88;4.10;;;-1.00;99.90;;;;;;4842061;29;20451;-77
2021/01/17 09:33:18;;;;;;;3.92;3.58;;;-0.90;99.90;;;;;;4854303;28;20428;-80
2021/01/17 09:35:44;;;;;;;7.43;4.10;;;-0.90;99.90;;;;;;4843639;29;20933;-77
2021/01/17 09:38:20;;;;;;;5.00;4.13;;;-0.80;99.90;;;;;;4826940;28;20433;-77
2021/01/17 09:40:47;;;;;;;4.38;3.95;;;-0.80;99.90;;;;;;4856526;28;20782;-78
2021/01/17 09:43:14;;;;;;;5.63;3.77;;;-0.70;99.90;;;;;;4850927;28;20788;-76
2021/01/17 09:45:40;;;;;;;4.82;4.10;;;-0.70;99.90;;;;;;4856695;28;20440;-76
2021/01/17 09:48:07;;;;;;;4.40;3.67;;;-0.70;99.90;;;;;;4839324;28;21120;-82
2021/01/17 09:50:34;;;;;;;4.73;4.10;;;-0.70;99.90;;;;;;4826622;28;20504;-77
2021/01/17 09:53:06;;;;;;;5.38;4.05;;;-0.70;99.90;;;;;;4864034;29;20760;-79
2021/01/17 09:55:43;;;;;;;4.22;3.25;;;-0.70;99.90;;;;;;4853329;29;21219;-77
2021/01/17 09:58:09;;;;;;;4.70;4.03;;;-0.80;99.90;;;;;;4844806;28;20496;-78
2021/01/17 10:00:35;;;;;;;4.30;3.90;;;-0.70;99.90;;;;;;4846832;28;20457;-75
2021/01/17 10:03:14;;;;;;;4.97;3.90;;;-0.60;99.90;;;;;;4861025;29;20441;-76
2021/01/17 10:05:42;;;;;;;5.15;4.30;;;-0.60;99.90;;;;;;4847032;29;20440;-77
2021/01/17 10:08:12;;;;;;;5.07;3.85;;;-0.50;99.90;;;;;;4844858;28;20412;-75
2021/01/17 10:10:38;;;;;;;4.32;3.80;;;-0.50;99.90;;;;;;4840135;28;20413;-79
2021/01/17 10:13:05;;;;;;;4.80;3.70;;;-0.40;99.90;;;;;;4873114;28;20956;-79
2021/01/17 10:15:32;;;;;;;4.80;3.85;;;-0.30;99.90;;;;;;4857219;28;20418;-77
2021/01/17 10:18:01;;;;;;;4.45;3.72;;;-0.30;99.90;;;;;;4848961;28;20471;-78
2021/01/17 10:20:31;;;;;;;4.55;3.83;;;-0.20;99.90;;;;;;4827169;29;20410;-75
2021/01/17 10:23:02;;;;;;;4.45;4.00;;;-0.20;99.90;;;;;;4841281;29;20482;-75
2021/01/17 10:25:27;;;;;;;4.18;3.60;;;-0.20;99.90;;;;;;4846439;29;20442;-79
2021/01/17 10:28:03;;;;;;;6.10;5.13;;;-0.30;99.90;;;;;;4842095;28;20511;-79
2021/01/17 10:30:41;;;;;;;4.53;3.85;;;-0.20;99.90;;;;;;4825507;29;20417;-80
2021/01/17 10:33:07;;;;;;;5.50;3.50;;;-0.20;99.90;;;;;;4859127;28;20449;-78
2021/01/17 10:35:46;;;;;;;4.47;3.50;;;-0.20;99.90;;;;;;4883186;28;20742;-78
2021/01/17 10:38:12;;;;;;;3.55;3.25;;;-0.20;99.90;;;;;;4923444;28;20401;-80
2021/01/17 10:40:38;;;;;;;3.15;2.90;;;-0.10;99.90;;;;;;4939519;28;20420;-78
2021/01/17 10:43:32;;;;;;;3.40;3.10;;;-0.10;99.90;;;;;;4936343;28;20420;-78
2021/01/17 10:46:15;;;;;;;4.50;4.10;;;0.00;99.90;;;;;;4907319;28;20917;-78
2021/01/17 10:49:13;;;;;;;4.00;3.53;;;0.10;99.90;;;;;;4955679;28;20482;-80
2021/01/17 10:51:43;;;;;;;4.05;3.50;;;-0.10;99.90;;;;;;4950786;28;20893;-80
2021/01/17 10:54:12;;;;;;;4.40;3.67;;;-0.20;99.90;;;;;;4959435;28;20494;-80
2021/01/17 10:56:38;;;;;;;4.10;3.55;;;-0.30;99.90;;;;;;4929358;28;20401;-81
2021/01/17 10:59:09;;;;;;;3.30;3.00;;;-0.30;99.90;;;;;;4958733;28;20404;-77
2021/01/17 11:01:35;;;;;;;5.55;3.88;;;-0.60;99.90;;;;;;4893448;28;20807;-76
2021/01/17 11:04:01;;;;;;;4.13;3.63;;;-0.80;99.90;;;;;;4837006;29;20417;-75
2021/01/17 11:06:27;;;;;;;4.00;3.55;;;-0.80;99.90;;;;;;4876027;28;20422;-78
2021/01/17 11:08:57;;;;;;;4.32;3.85;;;-0.70;99.90;;;;;;4850214;28;20468;-80
2021/01/17 11:11:25;;;;;;;5.57;4.00;;;-0.60;99.90;;;;;;4857816;28;20430;-80
2021/01/17 11:14:00;;;;;;;4.40;3.75;;;-0.60;99.90;;;;;;4861766;28;20522;-79
2021/01/17 11:16:52;;;;;;;4.85;3.88;;;-0.70;99.90;;;;;;4898369;28;20428;-77
2021/01/17 11:19:18;;;;;;;3.83;3.40;;;-0.70;99.90;;;;;;4956733;28;20398;-81
2021/01/17 11:21:45;;;;;;;4.60;3.80;;;-0.70;99.90;;;;;;4923355;29;20736;-77
2021/01/17 11:24:11;;;;;;;5.17;3.87;;;-0.60;99.90;;;;;;4925104;28;20782;-76
2021/01/17 11:26:37;;;;;;;3.83;3.53;;;-0.60;99.90;;;;;;4859965;28;20447;-77
2021/01/17 11:29:04;;;;;;;5.25;3.70;;;-0.50;99.90;;;;;;4844265;28;20433;-79
2021/01/17 11:31:30;;;;;;;4.32;3.60;;;-0.40;99.90;;;;;;4856168;28;20469;-76
2021/01/17 11:33:56;;;;;;;4.47;3.85;;;-0.40;99.90;;;;;;4845655;28;20442;-76
2021/01/17 11:36:26;;;;;;;4.23;3.80;;;-0.40;99.90;;;;;;4860927;28;20428;-77
2021/01/17 11:38:58;;;;;;;4.63;4.22;;;-0.30;99.90;;;;;;4832950;29;20421;-75
2021/01/17 11:41:38;;;;;;;5.00;4.18;;;-0.20;99.90;;;;;;4920336;28;20445;-82
2021/01/17 11:44:11;;;;;;;4.97;4.07;;;-0.10;99.90;;;;;;4859560;28;20475;-78
2021/01/17 11:46:37;;;;;;;4.50;3.50;;;-0.10;99.90;;;;;;4872156;28;20451;-82
2021/01/17 11:49:03;;;;;;;4.57;3.80;;;0.00;99.90;;;;;;4846543;29;20992;-79
2021/01/17 11:51:28;;;;;;;5.17;4.00;;;0.00;99.90;;;;;;4965794;28;20424;-76
2021/01/17 11:53:54;;;;;;;4.07;3.67;;;-0.10;99.90;;;;;;4940823;28;20519;-76
2021/01/17 11:56:20;;;;;;;4.53;3.50;;;-0.20;99.90;;;;;;4964289;28;20777;-80
2021/01/17 11:58:46;;;;;;;3.80;3.45;;;-0.10;99.90;;;;;;4844427;29;20418;-81
2021/01/17 12:01:13;;;;;;;4.18;3.65;;;-0.20;99.90;;;;;;4842896;29;20407;-76
2021/01/17 12:03:40;;;;;;;4.10;3.17;;;-0.20;99.90;;;;;;4922382;28;25440;-78
2021/01/17 12:06:06;;;;;;;5.40;4.55;;;-0.20;99.90;;;;;;4906566;28;20487;-81
2021/01/17 12:08:53;;;;;;;4.25;3.35;;;-0.10;99.90;;;;;;4952702;28;20475;-78
2021/01/17 12:11:43;;;;;;;3.40;3.00;;;0.00;99.90;;;;;;4905559;28;20424;-84
2021/01/17 12:14:10;;;;;;;3.15;2.85;;;0.10;99.90;;;;;;4934610;28;20949;-78
2021/01/17 12:16:40;;;;;;;4.13;3.20;;;0.20;99.90;;;;;;4896367;28;20422;-78
2021/01/17 12:19:07;;;;;;;3.53;2.70;;;0.20;99.90;;;;;;4830432;28;20400;-78
2021/01/17 12:21:33;;;;;;;9.68;4.85;;;0.30;99.90;;;;;;4932847;29;20406;-83
2021/01/17 12:23:59;;;;;;;11.93;6.78;;;0.40;99.90;;;;;;4907698;28;20423;-76
2021/01/17 12:26:25;;;;;;;9.52;7.72;;;0.40;99.90;;;;;;4920722;28;20406;-77
2021/01/17 12:28:51;;;;;;;15.95;9.27;;;0.30;99.90;;;;;;4892137;28;20469;-79
2021/01/17 12:31:17;;;;;;;11.27;8.65;;;0.20;99.90;;;;;;4854691;29;20479;-80
2021/01/17 12:33:43;;;;;;;11.20;8.23;;;0.10;99.90;;;;;;4840396;29;20783;-82
2021/01/17 12:36:10;;;;;;;11.85;8.32;;;0.00;99.90;;;;;;4832806;29;20414;-83
2021/01/17 12:38:36;;;;;;;12.20;8.43;;;-0.10;99.90;;;;;;4839393;28;20409;-78
2021/01/17 12:41:09;;;;;;;11.45;8.77;;;-0.30;99.90;;;;;;4854421;29;20432;-80
2021/01/17 12:43:34;;;;;;;11.23;8.52;;;-0.40;99.90;;;;;;4858148;28;20453;-79
2021/01/17 12:46:00;;;;;;;15.93;9.73;;;-0.40;99.90;;;;;;4848683;28;20432;-76
2021/01/17 12:48:26;;;;;;;12.68;9.80;;;-0.50;99.90;;;;;;4855156;29;20419;-80
2021/01/17 12:50:52;;;;;;;15.88;10.23;;;-0.60;99.90;;;;;;4839582;28;20451;-78
2021/01/17 12:53:17;;;;;;;13.87;10.00;;;-0.70;99.90;;;;;;4841989;28;20882;-78
2021/01/17 12:55:46;;;;;;;13.37;9.93;;;-0.70;99.90;;;;;;4855688;28;20393;-84